Time;durP1;ratioP1;P1;durP2;ratioP2;P2;SDS_P1;SDS_P2;PMS_P1;PMS_P2;Temp;Humidity;BMP_temperature;BMP_pressure;BME280_temperature;BME280_humidity;BME280_pressure;Samples;Min_cycle;Max_cycle;Signal;HPM_P1;HPM_P2
2022/09/20 00:02:05;;;;;;;10.32;6.00;;;;;;;;;;1880103;75;21168;-73
2022/09/20 00:04:35;;;;;;;9.43;4.53;;;;;;;;;;1878463;75;21180;-73
2022/09/20 00:07:06;;;;;;;7.47;4.12;;;;;;;;;;1889270;75;21171;-74
2022/09/20 00:09:36;;;;;;;5.25;3.80;;;;;;;;;;1875703;75;21077;-74
2022/09/20 00:12:07;;;;;;;6.22;4.25;;;;;;;;;;1857310;77;21113;-74
2022/09/20 00:14:38;;;;;;;7.42;4.58;;;;;;;;;;1839766;77;21242;-74
2022/09/20 00:17:27;;;;;;;7.05;4.70;;;;;;;;;;1891653;75;21230;-74
2022/09/20 00:19:57;;;;;;;9.10;5.15;;;;;;;;;;1811648;79;21071;-74
2022/09/20 00:22:27;;;;;;;8.05;4.87;;;;;;;;;;1814607;78;21154;-73
2022/09/20 00:24:57;;;;;;;8.58;4.40;;;;;;;;;;1782199;80;21920;-72
2022/09/20 00:27:27;;;;;;;6.58;4.70;;;;;;;;;;1784931;79;21682;-71
2022/09/20 00:29:58;;;;;;;5.92;4.10;;;;;;;;;;1783931;78;21135;-73
2022/09/20 00:32:28;;;;;;;5.33;3.52;;;;;;;;;;1768530;79;21195;-72
2022/09/20 00:35:07;;;;;;;4.58;3.25;;;;;;;;;;1839976;76;21178;-74
2022/09/20 00:37:29;;;;;;;5.12;3.17;;;;;;;;;;1838711;76;21211;-74
2022/09/20 00:39:59;;;;;;;4.87;3.55;;;;;;;;;;1839149;76;21098;-73
2022/09/20 00:42:30;;;;;;;5.50;3.37;;;;;;;;;;1837057;76;21566;-73
2022/09/20 00:45:02;;;;;;;5.95;3.95;;;;;;;;;;1840065;76;21187;-73
2022/09/20 00:47:34;;;;;;;6.72;4.08;;;;;;;;;;1839988;76;21203;-74
2022/09/20 00:50:05;;;;;;;8.88;4.17;;;;;;;;;;1840097;76;21170;-74
2022/09/20 00:52:35;;;;;;;7.20;4.03;;;;;;;;;;1837385;76;21155;-75
2022/09/20 00:55:07;;;;;;;6.53;3.95;;;;;;;;;;1840307;76;21129;-74
2022/09/20 00:57:38;;;;;;;5.28;3.60;;;;;;;;;;1840236;76;21080;-74
2022/09/20 01:00:09;;;;;;;5.15;3.70;;;;;;;;;;1839842;76;21135;-75
2022/09/20 01:02:40;;;;;;;8.23;3.85;;;;;;;;;;1812290;77;21590;-75
2022/09/20 01:05:12;;;;;;;5.33;4.00;;;;;;;;;;1814137;77;21662;-74
2022/09/20 01:07:43;;;;;;;9.73;3.75;;;;;;;;;;1804059;77;21219;-73
2022/09/20 01:10:14;;;;;;;6.35;3.55;;;;;;;;;;1773359;78;21165;-74
2022/09/20 01:12:45;;;;;;;5.67;3.72;;;;;;;;;;1786885;78;21174;-74
2022/09/20 01:15:15;;;;;;;4.90;3.25;;;;;;;;;;1817922;77;21750;-74
2022/09/20 01:17:47;;;;;;;5.08;2.95;;;;;;;;;;1837454;76;21135;-75
2022/09/20 01:20:16;;;;;;;7.37;3.65;;;;;;;;;;1803545;77;21343;-74
2022/09/20 01:22:48;;;;;;;4.67;3.60;;;;;;;;;;1818365;77;21206;-73
2022/09/20 01:25:19;;;;;;;7.90;4.30;;;;;;;;;;1817208;77;21182;-74
2022/09/20 01:27:51;;;;;;;6.70;3.37;;;;;;;;;;1810376;77;21175;-74
2022/09/20 01:30:22;;;;;;;6.95;3.30;;;;;;;;;;1796489;77;21259;-74
2022/09/20 01:32:54;;;;;;;4.72;3.12;;;;;;;;;;1826233;77;21198;-74
2022/09/20 01:35:27;;;;;;;6.58;3.50;;;;;;;;;;1835821;77;21125;-74
2022/09/20 01:37:58;;;;;;;9.00;4.10;;;;;;;;;;1828802;77;21288;-72
2022/09/20 01:40:29;;;;;;;6.12;3.95;;;;;;;;;;1831409;77;21198;-73
2022/09/20 01:43:01;;;;;;;7.28;3.85;;;;;;;;;;1834536;77;21115;-72
2022/09/20 01:45:32;;;;;;;7.58;4.45;;;;;;;;;;1833041;77;21171;-72
2022/09/20 01:48:04;;;;;;;8.50;3.65;;;;;;;;;;1825892;77;21708;-73
2022/09/20 01:50:35;;;;;;;7.05;3.90;;;;;;;;;;1822966;77;21127;-74
2022/09/20 01:53:06;;;;;;;5.47;3.47;;;;;;;;;;1830407;77;21198;-75
2022/09/20 01:55:38;;;;;;;5.92;3.33;;;;;;;;;;1793966;78;21251;-74
2022/09/20 01:58:09;;;;;;;7.25;3.60;;;;;;;;;;1801624;77;21145;-74
2022/09/20 02:00:41;;;;;;;10.95;4.45;;;;;;;;;;1809326;77;21123;-73
2022/09/20 02:03:12;;;;;;;5.97;3.50;;;;;;;;;;1754631;80;21217;-73
2022/09/20 02:05:43;;;;;;;6.47;3.00;;;;;;;;;;1766988;79;21153;-74
2022/09/20 02:08:15;;;;;;;8.35;3.75;;;;;;;;;;1828465;77;21088;-75
2022/09/20 02:10:46;;;;;;;4.42;3.50;;;;;;;;;;1804424;78;21185;-75
2022/09/20 02:13:17;;;;;;;4.47;2.62;;;;;;;;;;1797530;78;21188;-74
2022/09/20 02:15:47;;;;;;;6.12;2.87;;;;;;;;;;1836736;77;21597;-73
2022/09/20 02:18:17;;;;;;;7.55;2.90;;;;;;;;;;1838075;77;21217;-73
2022/09/20 02:20:49;;;;;;;6.40;3.17;;;;;;;;;;1851141;76;21220;-73
2022/09/20 02:23:21;;;;;;;4.85;2.90;;;;;;;;;;1851818;76;21139;-73
2022/09/20 02:25:53;;;;;;;14.07;5.65;;;;;;;;;;1845449;76;21162;-73
2022/09/20 02:28:25;;;;;;;4.85;2.70;;;;;;;;;;1849884;76;21176;-74
2022/09/20 02:30:57;;;;;;;5.78;2.40;;;;;;;;;;1847093;76;21707;-73
2022/09/20 02:33:28;;;;;;;4.65;2.25;;;;;;;;;;1842211;76;21119;-73
2022/09/20 02:35:59;;;;;;;4.78;2.65;;;;;;;;;;1836807;78;21623;-73
2022/09/20 02:38:31;;;;;;;3.90;2.70;;;;;;;;;;1839904;77;21225;-73
2022/09/20 02:41:02;;;;;;;4.35;2.92;;;;;;;;;;1837945;77;21150;-72
2022/09/20 02:43:33;;;;;;;4.35;2.50;;;;;;;;;;1839917;77;21587;-73
2022/09/20 02:46:05;;;;;;;5.60;2.87;;;;;;;;;;1832014;77;21605;-72
2022/09/20 02:48:36;;;;;;;5.47;2.45;;;;;;;;;;1836518;77;21615;-72
2022/09/20 02:51:08;;;;;;;4.40;2.45;;;;;;;;;;1837468;77;21128;-72
2022/09/20 02:53:39;;;;;;;4.55;2.25;;;;;;;;;;1846856;76;21240;-74
2022/09/20 02:56:09;;;;;;;4.80;2.50;;;;;;;;;;1827140;78;21108;-73
2022/09/20 02:58:41;;;;;;;5.17;2.72;;;;;;;;;;1849463;76;21151;-74
2022/09/20 03:01:12;;;;;;;5.17;2.70;;;;;;;;;;1849677;76;21280;-73
2022/09/20 03:03:43;;;;;;;8.43;4.10;;;;;;;;;;1847634;76;21155;-72
2022/09/20 03:06:15;;;;;;;4.58;2.02;;;;;;;;;;1852387;76;21681;-72
2022/09/20 03:08:46;;;;;;;4.60;1.65;;;;;;;;;;1821706;77;21147;-72
2022/09/20 03:11:17;;;;;;;4.12;1.85;;;;;;;;;;1851025;76;21147;-73
2022/09/20 03:13:49;;;;;;;3.60;1.95;;;;;;;;;;1852259;76;21119;-72
2022/09/20 03:16:20;;;;;;;5.03;2.12;;;;;;;;;;1845310;76;21748;-72
2022/09/20 03:18:52;;;;;;;3.58;2.12;;;;;;;;;;1843611;75;21973;-73
2022/09/20 03:21:23;;;;;;;6.53;2.12;;;;;;;;;;1834536;76;21715;-73
2022/09/20 03:23:54;;;;;;;4.28;2.40;;;;;;;;;;1855399;76;21285;-73
2022/09/20 03:26:25;;;;;;;3.98;2.25;;;;;;;;;;1847765;76;21142;-74
2022/09/20 03:28:55;;;;;;;3.10;2.12;;;;;;;;;;1842204;77;21224;-74
2022/09/20 03:31:26;;;;;;;4.72;2.42;;;;;;;;;;1850314;77;21170;-74
2022/09/20 03:33:56;;;;;;;8.75;2.50;;;;;;;;;;1859517;76;21100;-74
2022/09/20 03:36:27;;;;;;;4.35;2.45;;;;;;;;;;1847886;76;21190;-74
2022/09/20 03:38:59;;;;;;;4.58;2.65;;;;;;;;;;1854336;75;21194;-74
2022/09/20 03:41:30;;;;;;;4.95;2.27;;;;;;;;;;1852104;76;21152;-74
2022/09/20 03:44:00;;;;;;;4.60;2.40;;;;;;;;;;1849367;77;21804;-73
2022/09/20 03:46:32;;;;;;;2.85;2.17;;;;;;;;;;1845084;76;21166;-74
2022/09/20 03:49:03;;;;;;;5.08;2.72;;;;;;;;;;1832597;76;21217;-74
2022/09/20 03:51:35;;;;;;;3.72;2.05;;;;;;;;;;1851583;76;21163;-72
2022/09/20 03:54:06;;;;;;;5.28;2.45;;;;;;;;;;1855099;77;21154;-72
2022/09/20 03:56:38;;;;;;;3.05;1.60;;;;;;;;;;1854084;76;21191;-72
2022/09/20 03:59:09;;;;;;;3.77;1.67;;;;;;;;;;1845382;77;21587;-73
2022/09/20 04:01:40;;;;;;;3.12;1.45;;;;;;;;;;1853960;76;21697;-74
2022/09/20 04:04:12;;;;;;;4.50;1.62;;;;;;;;;;1854160;75;21650;-74
2022/09/20 04:06:43;;;;;;;2.40;1.07;;;;;;;;;;1855521;76;21308;-73
2022/09/20 04:09:14;;;;;;;2.90;1.40;;;;;;;;;;1850354;75;21229;-72
2022/09/20 04:11:47;;;;;;;4.50;2.00;;;;;;;;;;1815219;77;21127;-72
2022/09/20 04:14:19;;;;;;;4.47;1.50;;;;;;;;;;1858875;76;21100;-73
2022/09/20 04:16:48;;;;;;;4.75;1.75;;;;;;;;;;1857034;75;21538;-73
2022/09/20 04:19:20;;;;;;;7.78;1.50;;;;;;;;;;1847903;77;21146;-73
2022/09/20 04:21:51;;;;;;;4.22;1.67;;;;;;;;;;1859372;76;21112;-73
2022/09/20 04:24:23;;;;;;;2.83;1.62;;;;;;;;;;1860507;76;21084;-73
2022/09/20 04:26:55;;;;;;;3.77;1.37;;;;;;;;;;1854676;76;21230;-73
2022/09/20 04:29:27;;;;;;;4.92;1.50;;;;;;;;;;1861853;76;21159;-73
2022/09/20 04:31:58;;;;;;;8.00;1.30;;;;;;;;;;1840389;78;21114;-74
2022/09/20 04:36:27;;;;;;;5.30;1.72;;;;;;;;;;1839796;77;21136;-74
2022/09/20 04:37:03;;;;;;;8.50;2.10;;;;;;;;;;1846208;76;21133;-74
2022/09/20 04:39:35;;;;;;;11.83;1.65;;;;;;;;;;1861817;76;21277;-74
2022/09/20 04:42:07;;;;;;;4.67;1.32;;;;;;;;;;1841571;76;21127;-74
2022/09/20 04:44:38;;;;;;;6.70;1.82;;;;;;;;;;1864646;76;21186;-74
2022/09/20 04:47:10;;;;;;;6.20;1.77;;;;;;;;;;1831157;77;21133;-74
2022/09/20 04:49:42;;;;;;;13.85;3.47;;;;;;;;;;1837728;77;21142;-72
2022/09/20 04:52:14;;;;;;;3.83;1.98;;;;;;;;;;1835973;78;21191;-73
2022/09/20 04:54:44;;;;;;;7.85;2.05;;;;;;;;;;1837913;76;21186;-73
2022/09/20 04:57:15;;;;;;;4.35;1.57;;;;;;;;;;1838498;77;21189;-73
2022/09/20 04:59:46;;;;;;;2.42;1.17;;;;;;;;;;1845357;76;21147;-73
2022/09/20 05:02:18;;;;;;;5.12;1.85;;;;;;;;;;1836375;77;21093;-73
2022/09/20 05:04:50;;;;;;;5.10;1.82;;;;;;;;;;1831587;77;21163;-73
2022/09/20 05:07:20;;;;;;;3.25;1.50;;;;;;;;;;1835779;77;21230;-74
2022/09/20 05:09:51;;;;;;;4.72;1.65;;;;;;;;;;1835645;77;21586;-73
2022/09/20 05:12:23;;;;;;;3.98;1.57;;;;;;;;;;1838870;77;21598;-74
2022/09/20 05:14:55;;;;;;;4.00;1.62;;;;;;;;;;1837750;77;21095;-73
2022/09/20 05:17:27;;;;;;;5.35;2.00;;;;;;;;;;1824615;77;21112;-74
2022/09/20 05:20:00;;;;;;;4.80;1.70;;;;;;;;;;1795115;79;21175;-74
2022/09/20 05:22:31;;;;;;;2.77;1.65;;;;;;;;;;1823330;77;21170;-74
2022/09/20 05:25:05;;;;;;;3.27;1.50;;;;;;;;;;1834510;77;21160;-74
2022/09/20 05:27:37;;;;;;;3.00;1.65;;;;;;;;;;1838314;77;21198;-74
2022/09/20 05:30:08;;;;;;;3.00;1.60;;;;;;;;;;1842137;76;21257;-74
2022/09/20 05:32:40;;;;;;;2.72;1.57;;;;;;;;;;1848072;76;21233;-72
2022/09/20 05:35:11;;;;;;;3.50;1.75;;;;;;;;;;1839070;77;21174;-74
2022/09/20 05:37:43;;;;;;;2.52;1.47;;;;;;;;;;1828310;78;21125;-73
2022/09/20 05:40:14;;;;;;;3.60;1.70;;;;;;;;;;1826591;77;21555;-73
2022/09/20 05:42:45;;;;;;;5.12;2.10;;;;;;;;;;1822274;77;21206;-74
2022/09/20 05:45:17;;;;;;;3.10;1.80;;;;;;;;;;1823954;77;21171;-73
2022/09/20 05:47:48;;;;;;;3.27;1.70;;;;;;;;;;1836192;77;21165;-74
2022/09/20 05:50:19;;;;;;;3.02;1.47;;;;;;;;;;1839230;77;22009;-73
2022/09/20 05:52:51;;;;;;;4.60;1.57;;;;;;;;;;1783469;78;21592;-74
2022/09/20 05:55:20;;;;;;;2.35;1.55;;;;;;;;;;1836520;76;22274;-73
2022/09/20 05:57:55;;;;;;;3.25;1.60;;;;;;;;;;1845644;77;21074;-74
2022/09/20 06:00:26;;;;;;;5.75;2.12;;;;;;;;;;1847370;76;21096;-74
2022/09/20 06:02:58;;;;;;;4.10;2.33;;;;;;;;;;1845043;76;21117;-72
2022/09/20 06:05:30;;;;;;;3.45;1.80;;;;;;;;;;1847299;76;21102;-73
2022/09/20 06:08:02;;;;;;;7.17;3.12;;;;;;;;;;1848531;76;21175;-73
2022/09/20 06:10:34;;;;;;;5.60;1.70;;;;;;;;;;1839983;77;21259;-72
2022/09/20 06:13:08;;;;;;;5.30;1.57;;;;;;;;;;1858505;76;21387;-74
2022/09/20 06:15:37;;;;;;;5.47;1.92;;;;;;;;;;1854564;76;21209;-74
2022/09/20 06:18:09;;;;;;;5.30;1.90;;;;;;;;;;1849023;76;21163;-73
2022/09/20 06:20:40;;;;;;;5.72;1.90;;;;;;;;;;1837738;77;21237;-73
2022/09/20 06:23:11;;;;;;;4.15;1.82;;;;;;;;;;1837926;77;21132;-72
2022/09/20 06:25:42;;;;;;;7.00;1.90;;;;;;;;;;1805371;79;21166;-74
2022/09/20 06:28:14;;;;;;;6.97;1.92;;;;;;;;;;1815180;78;21257;-72
2022/09/20 06:30:45;;;;;;;3.08;1.75;;;;;;;;;;1812314;77;21604;-74
2022/09/20 06:33:17;;;;;;;4.62;1.98;;;;;;;;;;1813436;78;21245;-73
2022/09/20 06:35:48;;;;;;;3.83;1.70;;;;;;;;;;1843987;76;21091;-72
2022/09/20 06:41:27;;;;;;;7.40;2.20;;;;;;;;;;1841823;78;21190;-72
2022/09/20 06:43:25;;;;;;;4.60;2.30;;;;;;;;;;1839193;77;21163;-71
2022/09/20 06:45:55;;;;;;;6.47;2.62;;;;;;;;;;1845467;76;21130;-72
2022/09/20 06:48:26;;;;;;;3.77;2.00;;;;;;;;;;1824945;77;21611;-75
2022/09/20 06:50:56;;;;;;;4.70;2.30;;;;;;;;;;1846776;75;21085;-72
2022/09/20 06:53:28;;;;;;;5.80;2.47;;;;;;;;;;1865492;76;21157;-73
2022/09/20 06:55:59;;;;;;;6.78;3.05;;;;;;;;;;1846128;76;21142;-74
2022/09/20 06:58:30;;;;;;;4.47;2.40;;;;;;;;;;1851788;76;21679;-75
2022/09/20 07:01:00;;;;;;;5.40;2.95;;;;;;;;;;1842335;78;21223;-75
2022/09/20 07:03:31;;;;;;;3.30;2.10;;;;;;;;;;1832158;77;21216;-72
2022/09/20 07:06:04;;;;;;;5.40;2.50;;;;;;;;;;1848023;76;21183;-73
2022/09/20 07:08:35;;;;;;;4.55;2.35;;;;;;;;;;1836782;78;21126;-74
2022/09/20 07:11:09;;;;;;;7.03;2.52;;;;;;;;;;1821083;77;21187;-74
2022/09/20 07:13:39;;;;;;;6.00;2.10;;;;;;;;;;1855374;76;21544;-74
2022/09/20 07:16:12;;;;;;;3.80;2.30;;;;;;;;;;1855083;76;21064;-73
2022/09/20 07:18:43;;;;;;;3.67;1.98;;;;;;;;;;1845562;75;21084;-73
2022/09/20 07:21:15;;;;;;;4.03;2.25;;;;;;;;;;1839921;77;21090;-74
2022/09/20 07:23:47;;;;;;;4.15;2.10;;;;;;;;;;1858845;76;21149;-74
2022/09/20 07:26:21;;;;;;;4.47;2.20;;;;;;;;;;1838800;77;21064;-73
2022/09/20 07:28:51;;;;;;;6.78;2.22;;;;;;;;;;1857548;76;21669;-74
2022/09/20 07:31:23;;;;;;;4.92;2.30;;;;;;;;;;1841094;77;21619;-74
2022/09/20 07:33:54;;;;;;;3.47;2.15;;;;;;;;;;1822399;77;21191;-74
2022/09/20 07:36:24;;;;;;;3.98;2.10;;;;;;;;;;1809299;77;21162;-75
2022/09/20 07:38:54;;;;;;;5.10;2.02;;;;;;;;;;1823794;77;21952;-73
2022/09/20 07:41:25;;;;;;;3.95;2.00;;;;;;;;;;1845943;76;21083;-74
2022/09/20 07:44:19;;;;;;;4.53;1.75;;;;;;;;;;1845434;78;21181;-73
2022/09/20 07:46:27;;;;;;;6.87;2.17;;;;;;;;;;1841014;75;21253;-73
2022/09/20 07:48:57;;;;;;;3.05;1.75;;;;;;;;;;1836568;78;21177;-74
2022/09/20 07:51:27;;;;;;;4.30;1.80;;;;;;;;;;1785881;78;21087;-74
2022/09/20 07:54:00;;;;;;;3.05;1.90;;;;;;;;;;1850465;76;21119;-73
2022/09/20 07:56:31;;;;;;;2.52;1.45;;;;;;;;;;1836249;78;21112;-73
2022/09/20 07:59:02;;;;;;;4.58;2.40;;;;;;;;;;1836612;78;21171;-74
2022/09/20 08:01:32;;;;;;;4.03;1.72;;;;;;;;;;1834398;78;21804;-75
2022/09/20 08:04:04;;;;;;;3.58;1.90;;;;;;;;;;1848682;76;21245;-74
2022/09/20 08:06:36;;;;;;;4.58;2.45;;;;;;;;;;1825044;78;21166;-73
2022/09/20 08:09:07;;;;;;;2.67;1.98;;;;;;;;;;1831249;76;21060;-73
2022/09/20 08:11:40;;;;;;;3.40;1.85;;;;;;;;;;1843554;77;21574;-75
2022/09/20 08:14:11;;;;;;;3.80;1.47;;;;;;;;;;1855450;76;21079;-74
2022/09/20 08:16:43;;;;;;;3.62;1.55;;;;;;;;;;1832031;77;21167;-75
2022/09/20 08:19:14;;;;;;;2.35;1.35;;;;;;;;;;1815504;78;21183;-75
2022/09/20 08:21:45;;;;;;;6.53;1.30;;;;;;;;;;1845086;76;21205;-75
2022/09/20 08:24:16;;;;;;;6.35;1.37;;;;;;;;;;1875910;76;21082;-75
2022/09/20 08:26:47;;;;;;;7.75;1.70;;;;;;;;;;1871689;76;21521;-75
2022/09/20 08:29:22;;;;;;;3.80;1.70;;;;;;;;;;1863788;76;21212;-75
2022/09/20 08:31:49;;;;;;;4.62;1.70;;;;;;;;;;1842239;76;21560;-75
2022/09/20 08:34:19;;;;;;;3.08;1.77;;;;;;;;;;1869184;76;21268;-74
2022/09/20 08:36:55;;;;;;;2.83;1.55;;;;;;;;;;1853169;76;21131;-75
2022/09/20 08:39:23;;;;;;;3.87;1.77;;;;;;;;;;1845400;76;21116;-74
2022/09/20 08:41:55;;;;;;;3.62;1.70;;;;;;;;;;1828854;76;21259;-73
2022/09/20 08:44:27;;;;;;;5.37;1.98;;;;;;;;;;1835594;76;21214;-73
2022/09/20 08:47:00;;;;;;;2.72;1.45;;;;;;;;;;1857236;76;21101;-73
2022/09/20 08:49:30;;;;;;;5.97;1.32;;;;;;;;;;1827021;76;21182;-73
2022/09/20 08:52:01;;;;;;;4.25;1.90;;;;;;;;;;1841957;76;21148;-73
2022/09/20 08:54:32;;;;;;;6.45;1.70;;;;;;;;;;1855564;77;21178;-73
2022/09/20 08:57:20;;;;;;;3.75;1.60;;;;;;;;;;1813474;78;21101;-74
2022/09/20 08:59:50;;;;;;;3.77;1.50;;;;;;;;;;1811622;78;21199;-74
2022/09/20 09:02:21;;;;;;;3.72;1.90;;;;;;;;;;1855671;76;21142;-74
2022/09/20 09:04:52;;;;;;;6.17;1.70;;;;;;;;;;1856345;76;21114;-73
2022/09/20 09:07:23;;;;;;;3.37;1.35;;;;;;;;;;1853699;76;21094;-73
2022/09/20 09:09:55;;;;;;;4.12;1.90;;;;;;;;;;1858544;76;21684;-73
2022/09/20 09:12:26;;;;;;;4.75;1.75;;;;;;;;;;1843366;76;21226;-74
2022/09/20 09:14:58;;;;;;;7.17;2.17;;;;;;;;;;1851539;76;21135;-72
2022/09/20 09:17:29;;;;;;;5.35;1.98;;;;;;;;;;1850458;76;21164;-72
2022/09/20 09:20:01;;;;;;;4.92;2.05;;;;;;;;;;1854077;76;21094;-74
2022/09/20 09:22:34;;;;;;;4.00;2.15;;;;;;;;;;1856123;76;21054;-84
2022/09/20 09:25:05;;;;;;;4.53;2.52;;;;;;;;;;1844792;76;21649;-85
2022/09/20 09:27:35;;;;;;;7.83;2.67;;;;;;;;;;1844022;76;21118;-86
2022/09/20 09:30:06;;;;;;;8.35;2.50;;;;;;;;;;1837734;77;21118;-85
2022/09/20 09:32:36;;;;;;;5.28;2.30;;;;;;;;;;1836029;77;21159;-86
2022/09/20 09:35:08;;;;;;;4.65;2.67;;;;;;;;;;1847048;76;21147;-85
2022/09/20 09:37:38;;;;;;;4.05;2.10;;;;;;;;;;1842446;77;21132;-87
2022/09/20 09:40:10;;;;;;;3.65;2.30;;;;;;;;;;1843006;77;21174;-88
2022/09/20 09:42:41;;;;;;;5.15;2.00;;;;;;;;;;1840779;76;21092;-87
2022/09/20 09:45:13;;;;;;;6.37;1.90;;;;;;;;;;1805718;79;21095;-86
2022/09/20 09:47:43;;;;;;;3.60;1.80;;;;;;;;;;1836367;76;21096;-85
2022/09/20 09:50:15;;;;;;;9.90;2.30;;;;;;;;;;1842598;78;21153;-85
2022/09/20 09:52:49;;;;;;;4.65;2.00;;;;;;;;;;1860887;77;21120;-86
2022/09/20 09:55:19;;;;;;;7.95;2.47;;;;;;;;;;1845504;76;21260;-85
2022/09/20 09:57:53;;;;;;;5.72;2.70;;;;;;;;;;1848339;77;21219;-85
2022/09/20 10:00:23;;;;;;;8.15;2.30;;;;;;;;;;1843477;76;21096;-86
2022/09/20 10:02:55;;;;;;;6.80;2.50;;;;;;;;;;1846223;76;21139;-86
2022/09/20 10:05:26;;;;;;;8.25;2.62;;;;;;;;;;1804877;79;21126;-86
2022/09/20 10:07:58;;;;;;;4.67;2.20;;;;;;;;;;1840144;78;21642;-85
2022/09/20 10:10:28;;;;;;;6.47;2.50;;;;;;;;;;1835890;76;21150;-85
2022/09/20 10:13:04;;;;;;;5.10;2.27;;;;;;;;;;1840706;76;21704;-86
2022/09/20 10:15:32;;;;;;;5.03;2.70;;;;;;;;;;1832043;78;21241;-87
2022/09/20 10:18:02;;;;;;;4.45;2.70;;;;;;;;;;1846892;76;21135;-86
2022/09/20 10:20:33;;;;;;;5.40;2.10;;;;;;;;;;1842335;77;21088;-87
2022/09/20 10:23:06;;;;;;;4.65;2.60;;;;;;;;;;1842307;76;21772;-86
2022/09/20 10:25:39;;;;;;;4.40;2.12;;;;;;;;;;1857710;77;21185;-86
2022/09/20 10:28:10;;;;;;;6.97;2.72;;;;;;;;;;1853116;77;21192;-86
2022/09/20 10:30:42;;;;;;;5.28;2.62;;;;;;;;;;1843406;76;21136;-86
2022/09/20 10:33:13;;;;;;;7.08;2.65;;;;;;;;;;1842464;76;21155;-86
2022/09/20 10:35:45;;;;;;;8.63;2.80;;;;;;;;;;1836511;77;21201;-85
2022/09/20 10:38:21;;;;;;;4.85;2.55;;;;;;;;;;1846483;76;21162;-85
2022/09/20 10:43:24;;;;;;;4.47;2.65;;;;;;;;;;1836569;76;21172;-85
2022/09/20 10:45:57;;;;;;;5.65;2.67;;;;;;;;;;1816192;77;21410;-86
2022/09/20 10:48:29;;;;;;;6.53;2.90;;;;;;;;;;1842396;76;21550;-87
2022/09/20 10:51:01;;;;;;;6.25;2.30;;;;;;;;;;1836986;77;21104;-86
2022/09/20 10:53:34;;;;;;;7.87;2.65;;;;;;;;;;1843498;76;21121;-85
2022/09/20 10:56:05;;;;;;;4.80;2.67;;;;;;;;;;1838393;78;21205;-85
2022/09/20 10:58:36;;;;;;;7.92;3.60;;;;;;;;;;1831838;78;21223;-85
2022/09/20 11:01:08;;;;;;;9.43;3.50;;;;;;;;;;1835861;77;21217;-86
2022/09/20 11:03:39;;;;;;;7.50;2.60;;;;;;;;;;1833603;76;21181;-87
2022/09/20 11:06:12;;;;;;;5.42;2.60;;;;;;;;;;1830012;76;21158;-85
2022/09/20 11:08:43;;;;;;;7.03;3.37;;;;;;;;;;1841886;76;21134;-85
2022/09/20 11:11:15;;;;;;;5.33;2.72;;;;;;;;;;1848762;76;21177;-86
2022/09/20 11:13:47;;;;;;;6.50;2.98;;;;;;;;;;1836322;75;21170;-87
2022/09/20 11:16:22;;;;;;;5.62;3.25;;;;;;;;;;1843357;74;21243;-87
2022/09/20 11:18:53;;;;;;;5.22;3.00;;;;;;;;;;1844274;76;21187;-85
2022/09/20 11:21:27;;;;;;;4.70;3.17;;;;;;;;;;1845214;76;21145;-85
2022/09/20 11:23:58;;;;;;;6.78;3.37;;;;;;;;;;1839311;76;21137;-87
2022/09/20 11:26:30;;;;;;;6.75;3.22;;;;;;;;;;1813482;77;21547;-87
2022/09/20 11:29:02;;;;;;;8.38;3.70;;;;;;;;;;1848143;76;21182;-87
2022/09/20 11:31:37;;;;;;;9.55;3.27;;;;;;;;;;1837508;76;21172;-87
2022/09/20 11:34:09;;;;;;;7.58;3.60;;;;;;;;;;1850028;76;21170;-85
2022/09/20 11:36:51;;;;;;;6.72;3.80;;;;;;;;;;1851191;76;21634;-86
2022/09/20 11:39:19;;;;;;;5.50;3.75;;;;;;;;;;1852622;76;21153;-85
2022/09/20 11:41:50;;;;;;;7.22;4.15;;;;;;;;;;1852837;76;21217;-85
2022/09/20 11:44:24;;;;;;;6.60;3.77;;;;;;;;;;1856869;76;21587;-86
2022/09/20 11:46:55;;;;;;;7.03;3.70;;;;;;;;;;1841315;76;21110;-85
2022/09/20 11:49:31;;;;;;;9.03;4.47;;;;;;;;;;1846954;76;21211;-87
2022/09/20 11:52:02;;;;;;;8.88;4.42;;;;;;;;;;1852201;76;21190;-86
2022/09/20 11:54:33;;;;;;;6.80;4.50;;;;;;;;;;1854169;76;21143;-86
2022/09/20 11:57:06;;;;;;;9.33;3.90;;;;;;;;;;1813476;77;21228;-87
2022/09/20 11:59:39;;;;;;;5.78;3.65;;;;;;;;;;1825269;77;21139;-88
2022/09/20 12:02:12;;;;;;;4.87;3.10;;;;;;;;;;1832624;77;21100;-86
2022/09/20 12:04:44;;;;;;;5.10;3.67;;;;;;;;;;1851412;76;21141;-86
2022/09/20 12:07:17;;;;;;;7.15;4.30;;;;;;;;;;1864657;75;21167;-87
2022/09/20 12:09:51;;;;;;;8.63;3.55;;;;;;;;;;1859660;75;21078;-86
2022/09/20 12:12:21;;;;;;;8.95;3.70;;;;;;;;;;1841197;76;21631;-86
2022/09/20 12:14:53;;;;;;;6.85;3.50;;;;;;;;;;1848092;77;21710;-84
2022/09/20 12:17:25;;;;;;;6.15;3.00;;;;;;;;;;1847876;76;21135;-88
2022/09/20 12:19:55;;;;;;;5.87;3.10;;;;;;;;;;1864070;75;21700;-86
2022/09/20 12:22:27;;;;;;;5.45;3.30;;;;;;;;;;1856738;76;21141;-86
2022/09/20 12:24:59;;;;;;;5.58;2.72;;;;;;;;;;1849594;76;21563;-86
2022/09/20 12:27:30;;;;;;;11.00;3.25;;;;;;;;;;1840746;76;21150;-86
2022/09/20 12:29:59;;;;;;;7.80;3.42;;;;;;;;;;1841772;77;21149;-87
2022/09/20 12:32:32;;;;;;;7.05;3.37;;;;;;;;;;1847992;77;21449;-87
2022/09/20 12:35:03;;;;;;;5.35;2.83;;;;;;;;;;1852491;76;21178;-86
2022/09/20 12:37:34;;;;;;;4.72;3.00;;;;;;;;;;1824986;76;21627;-86
2022/09/20 12:40:07;;;;;;;6.42;3.08;;;;;;;;;;1839399;76;21105;-86
2022/09/20 12:42:40;;;;;;;8.45;3.50;;;;;;;;;;1835403;76;21560;-87
2022/09/20 12:45:12;;;;;;;5.50;2.98;;;;;;;;;;1804170;77;21638;-86
2022/09/20 12:47:43;;;;;;;5.60;3.17;;;;;;;;;;1766462;79;21892;-84
2022/09/20 12:52:56;;;;;;;6.67;2.40;;;;;;;;;;1837457;76;21237;-85
2022/09/20 12:55:18;;;;;;;8.10;2.65;;;;;;;;;;1831742;76;21576;-86
2022/09/20 12:57:50;;;;;;;4.90;2.52;;;;;;;;;;1841209;77;21143;-85
2022/09/20 13:00:21;;;;;;;4.65;2.42;;;;;;;;;;1826319;77;21191;-86
2022/09/20 13:02:51;;;;;;;5.35;2.30;;;;;;;;;;1844579;76;21171;-85
2022/09/20 13:05:23;;;;;;;8.05;2.50;;;;;;;;;;1835818;76;21166;-85
2022/09/20 13:07:58;;;;;;;6.78;2.65;;;;;;;;;;1833602;76;21123;-88
2022/09/20 13:10:28;;;;;;;4.45;2.77;;;;;;;;;;1828124;77;21140;-86
2022/09/20 13:12:59;;;;;;;6.58;2.25;;;;;;;;;;1847377;76;21189;-85
2022/09/20 13:15:32;;;;;;;6.00;2.25;;;;;;;;;;1835524;77;21481;-86
2022/09/20 13:18:01;;;;;;;5.55;2.25;;;;;;;;;;1796075;80;21116;-87
2022/09/20 13:20:33;;;;;;;3.35;2.17;;;;;;;;;;1829875;76;21163;-86
2022/09/20 13:23:04;;;;;;;6.03;2.15;;;;;;;;;;1836762;76;21179;-86
2022/09/20 13:25:34;;;;;;;4.55;2.30;;;;;;;;;;1841159;76;21185;-84
2022/09/20 13:28:05;;;;;;;4.72;2.37;;;;;;;;;;1843902;76;21573;-88
2022/09/20 13:30:39;;;;;;;3.37;2.22;;;;;;;;;;1837986;75;21200;-86
2022/09/20 13:33:09;;;;;;;4.12;2.52;;;;;;;;;;1851423;76;21182;-86
2022/09/20 13:35:40;;;;;;;4.85;2.30;;;;;;;;;;1854206;75;21110;-86
2022/09/20 13:38:11;;;;;;;4.85;2.25;;;;;;;;;;1848153;77;21583;-85
2022/09/20 13:40:42;;;;;;;6.37;2.50;;;;;;;;;;1844080;76;21152;-85
2022/09/20 13:43:19;;;;;;;5.53;2.10;;;;;;;;;;1840850;76;21120;-86
2022/09/20 13:45:51;;;;;;;5.70;2.20;;;;;;;;;;1837477;77;21180;-86
2022/09/20 13:48:22;;;;;;;5.83;2.15;;;;;;;;;;1850791;76;21201;-87
2022/09/20 13:50:52;;;;;;;5.58;2.15;;;;;;;;;;1850267;76;21183;-86
2022/09/20 13:53:23;;;;;;;6.67;2.05;;;;;;;;;;1847457;76;21155;-87
2022/09/20 13:55:58;;;;;;;5.15;2.20;;;;;;;;;;1830564;78;21119;-86
2022/09/20 13:58:30;;;;;;;6.12;2.60;;;;;;;;;;1845478;76;21108;-85
2022/09/20 14:01:01;;;;;;;5.83;2.30;;;;;;;;;;1836303;76;21204;-84
2022/09/20 14:03:35;;;;;;;5.17;2.42;;;;;;;;;;1849475;75;21200;-86
2022/09/20 14:06:05;;;;;;;5.90;2.45;;;;;;;;;;1839826;76;21109;-86
2022/09/20 14:08:36;;;;;;;3.90;2.50;;;;;;;;;;1856169;76;21584;-86
2022/09/20 14:11:08;;;;;;;4.92;2.30;;;;;;;;;;1836656;76;21166;-87
2022/09/20 14:13:39;;;;;;;7.25;2.33;;;;;;;;;;1854886;76;21724;-87
2022/09/20 14:16:10;;;;;;;9.38;2.45;;;;;;;;;;1841411;76;21167;-86
2022/09/20 14:18:41;;;;;;;3.40;2.12;;;;;;;;;;1850189;77;21712;-86
2022/09/20 14:21:11;;;;;;;4.90;2.40;;;;;;;;;;1839127;76;21151;-86
2022/09/20 14:23:43;;;;;;;4.97;2.60;;;;;;;;;;1837674;76;21111;-86
2022/09/20 14:26:14;;;;;;;5.17;2.17;;;;;;;;;;1828424;76;21136;-85
2022/09/20 14:28:44;;;;;;;7.00;3.27;;;;;;;;;;1824622;78;21132;-84
2022/09/20 14:31:16;;;;;;;5.60;2.85;;;;;;;;;;1835660;78;21213;-84
2022/09/20 14:33:49;;;;;;;4.87;2.62;;;;;;;;;;1836668;76;21192;-85
2022/09/20 14:36:22;;;;;;;5.28;3.15;;;;;;;;;;1831044;76;21140;-80
2022/09/20 14:38:53;;;;;;;6.97;2.85;;;;;;;;;;1818746;76;21190;-82
2022/09/20 14:41:27;;;;;;;5.40;3.45;;;;;;;;;;1820331;77;22403;-82
2022/09/20 14:43:58;;;;;;;6.22;2.50;;;;;;;;;;1836996;76;21120;-83
2022/09/20 14:46:29;;;;;;;6.53;2.83;;;;;;;;;;1835566;76;21628;-83
2022/09/20 14:49:01;;;;;;;7.20;2.58;;;;;;;;;;1837620;77;21227;-82
2022/09/20 14:51:31;;;;;;;4.67;2.85;;;;;;;;;;1835844;77;21529;-82
2022/09/20 14:54:02;;;;;;;5.87;2.85;;;;;;;;;;1837288;76;21148;-83
2022/09/20 14:56:34;;;;;;;8.03;2.75;;;;;;;;;;1845636;76;21232;-82
2022/09/20 14:59:06;;;;;;;5.72;3.00;;;;;;;;;;1823257;77;21069;-83
2022/09/20 15:01:37;;;;;;;7.30;3.10;;;;;;;;;;1833390;77;21207;-82
2022/09/20 15:04:12;;;;;;;8.75;2.98;;;;;;;;;;1823847;76;21079;-84
2022/09/20 15:06:42;;;;;;;6.60;3.08;;;;;;;;;;1826694;76;21128;-84
2022/09/20 15:09:13;;;;;;;6.90;3.33;;;;;;;;;;1829883;76;21164;-83
2022/09/20 15:11:43;;;;;;;6.53;3.15;;;;;;;;;;1826312;76;21688;-82
2022/09/20 15:14:13;;;;;;;10.25;3.35;;;;;;;;;;1821608;76;21123;-83
2022/09/20 15:16:43;;;;;;;6.30;3.10;;;;;;;;;;1832748;77;21171;-82